createdAt,value
2018-06-17T00:00:01.412Z,1009.61
2018-06-17T00:01:01.436Z,1009.64
2018-06-17T00:02:01.456Z,1009.64
2018-06-17T00:03:01.483Z,1009.63
2018-06-17T00:04:01.503Z,1009.64
2018-06-17T00:05:01.528Z,1009.64
2018-06-17T00:06:01.561Z,1009.65
2018-06-17T00:07:01.572Z,1009.63
2018-06-17T00:08:01.595Z,1009.64
2018-06-17T00:09:01.620Z,1009.65
2018-06-17T00:10:01.644Z,1009.61
2018-06-17T00:11:01.668Z,1009.59
2018-06-17T00:12:01.688Z,1009.64
2018-06-17T00:13:01.711Z,1009.62
2018-06-17T00:14:01.734Z,1009.60
2018-06-17T00:15:01.760Z,1009.59
2018-06-17T00:16:01.783Z,1009.59
2018-06-17T00:17:01.804Z,1009.61
2018-06-17T00:18:01.827Z,1009.63
2018-06-17T00:19:01.850Z,1009.63
2018-06-17T00:20:01.875Z,1009.63
2018-06-17T00:21:01.896Z,1009.68
2018-06-17T00:22:01.919Z,1009.64
2018-06-17T00:23:01.946Z,1009.67
2018-06-17T00:24:01.971Z,1009.68
2018-06-17T00:25:01.992Z,1009.63
2018-06-17T00:26:02.012Z,1009.63
2018-06-17T00:27:02.039Z,1009.65
2018-06-17T00:28:02.058Z,1009.62
2018-06-17T00:29:02.087Z,1009.62
2018-06-17T00:30:02.104Z,1009.64
2018-06-17T00:31:02.129Z,1009.62
2018-06-17T00:32:02.149Z,1009.61
2018-06-17T00:33:02.174Z,1009.66
2018-06-17T00:34:02.197Z,1009.60
2018-06-17T00:35:02.222Z,1009.59
2018-06-17T00:36:02.245Z,1009.58
2018-06-17T00:37:02.267Z,1009.61
2018-06-17T00:38:02.291Z,1009.63
2018-06-17T00:39:02.313Z,1009.58
2018-06-17T00:40:02.337Z,1009.61
2018-06-17T00:41:02.359Z,1009.61
2018-06-17T00:42:02.404Z,1009.61
2018-06-17T00:43:02.406Z,1009.61
2018-06-17T00:44:02.424Z,1009.63
2018-06-17T00:45:02.453Z,1009.60
2018-06-17T00:46:02.472Z,1009.61
2018-06-17T00:47:02.496Z,1009.64
2018-06-17T00:48:02.518Z,1009.62
2018-06-17T00:49:02.542Z,1009.69
2018-06-17T00:50:02.564Z,1009.64
2018-06-17T00:51:02.586Z,1009.69
2018-06-17T00:52:02.606Z,1009.68
2018-06-17T00:53:02.630Z,1009.68
2018-06-17T00:54:02.655Z,1009.67
2018-06-17T00:55:02.676Z,1009.63
2018-06-17T00:56:02.701Z,1009.65
2018-06-17T00:57:02.721Z,1009.61
2018-06-17T00:58:02.746Z,1009.64
2018-06-17T00:59:02.766Z,1009.60
2018-06-17T01:00:02.791Z,1009.62
2018-06-17T01:01:02.814Z,1009.59
2018-06-17T01:02:02.834Z,1009.64
2018-06-17T01:03:02.857Z,1009.64
2018-06-17T01:04:02.881Z,1009.65
2018-06-17T01:05:02.904Z,1009.62
2018-06-17T01:06:02.925Z,1009.61
2018-06-17T01:07:02.950Z,1009.60
2018-06-17T01:08:02.970Z,1009.62
2018-06-17T01:09:02.996Z,1009.63
2018-06-17T01:10:03.015Z,1009.62
2018-06-17T01:11:03.040Z,1009.67
2018-06-17T01:12:03.059Z,1009.64
2018-06-17T01:13:03.084Z,1009.68
2018-06-17T01:14:03.105Z,1009.71
2018-06-17T01:15:03.128Z,1009.77
2018-06-17T01:16:03.150Z,1009.74
2018-06-17T01:17:03.175Z,1009.74
2018-06-17T01:18:03.198Z,1009.76
2018-06-17T01:19:03.218Z,1009.73
2018-06-17T01:20:03.241Z,1009.77
2018-06-17T01:21:03.263Z,1009.75
2018-06-17T01:22:03.284Z,1009.73
2018-06-17T01:23:03.310Z,1009.73
2018-06-17T01:24:03.335Z,1009.71
2018-06-17T01:25:03.355Z,1009.74
2018-06-17T01:26:03.378Z,1009.73
2018-06-17T01:27:03.401Z,1009.73
2018-06-17T01:28:03.425Z,1009.72
2018-06-17T01:29:03.444Z,1009.76
2018-06-17T01:30:03.467Z,1009.75
2018-06-17T01:31:03.490Z,1009.79
2018-06-17T01:32:03.563Z,1009.80
2018-06-17T01:33:03.534Z,1009.76
2018-06-17T01:34:03.558Z,1009.80
2018-06-17T01:35:03.577Z,1009.81
2018-06-17T01:36:03.600Z,1009.82
2018-06-17T01:37:03.622Z,1009.80
2018-06-17T01:38:03.646Z,1009.80
2018-06-17T01:39:03.665Z,1009.80
2018-06-17T01:40:03.687Z,1009.77
2018-06-17T01:41:03.710Z,1009.74
2018-06-17T01:42:03.735Z,1009.79
2018-06-17T01:43:03.764Z,1009.79
2018-06-17T01:44:03.776Z,1009.78
2018-06-17T01:45:03.801Z,1009.79
2018-06-17T01:46:03.824Z,1009.76
2018-06-17T01:47:03.848Z,1009.75
2018-06-17T01:48:03.867Z,1009.76
2018-06-17T01:49:03.891Z,1009.73
2018-06-17T01:50:03.911Z,1009.74
2018-06-17T01:51:03.934Z,1009.73
2018-06-17T01:52:03.957Z,1009.72
2018-06-17T01:53:03.976Z,1009.75
2018-06-17T01:54:04.000Z,1009.74
2018-06-17T01:55:04.021Z,1009.78
2018-06-17T01:56:04.044Z,1009.78
2018-06-17T01:57:04.064Z,1009.77
2018-06-17T01:58:04.090Z,1009.76
2018-06-17T01:59:04.111Z,1009.79
2018-06-17T02:00:04.133Z,1009.76
2018-06-17T02:01:04.155Z,1009.75
2018-06-17T02:02:04.179Z,1009.80
2018-06-17T02:03:04.200Z,1009.82
2018-06-17T02:04:04.223Z,1009.81
2018-06-17T02:05:04.246Z,1009.76
2018-06-17T02:06:04.263Z,1009.75
2018-06-17T02:07:04.284Z,1009.79
2018-06-17T02:08:04.308Z,1009.74
2018-06-17T02:09:04.328Z,1009.74
2018-06-17T02:10:04.351Z,1009.75
2018-06-17T02:11:04.374Z,1009.76
2018-06-17T02:12:04.396Z,1009.72
2018-06-17T02:13:04.416Z,1009.65
2018-06-17T02:14:04.441Z,1009.65
2018-06-17T02:15:04.460Z,1009.68
2018-06-17T02:16:04.488Z,1009.69
2018-06-17T02:17:04.503Z,1009.66
2018-06-17T02:18:04.527Z,1009.70
2018-06-17T02:19:04.548Z,1009.65
2018-06-17T02:20:04.571Z,1009.70
2018-06-17T02:21:04.593Z,1009.69
2018-06-17T02:22:04.619Z,1009.69
2018-06-17T02:23:04.636Z,1009.69
2018-06-17T02:24:04.659Z,1009.71
2018-06-17T02:25:04.680Z,1009.69
2018-06-17T02:26:04.702Z,1009.67
2018-06-17T02:27:04.723Z,1009.76
2018-06-17T02:28:04.745Z,1009.75
2018-06-17T02:29:04.766Z,1009.74
2018-06-17T02:30:04.789Z,1009.76
2018-06-17T02:31:04.811Z,1009.79
2018-06-17T02:32:04.834Z,1009.81
2018-06-17T02:33:04.854Z,1009.81
2018-06-17T02:34:04.876Z,1009.81
2018-06-17T02:35:04.896Z,1009.84
2018-06-17T02:36:04.920Z,1009.80
2018-06-17T02:37:04.941Z,1009.83
2018-06-17T02:38:04.961Z,1009.86
2018-06-17T02:39:04.986Z,1009.87
2018-06-17T02:40:05.005Z,1009.86
2018-06-17T02:41:05.029Z,1009.88
2018-06-17T02:42:05.054Z,1009.89
2018-06-17T02:43:05.073Z,1009.88
2018-06-17T02:44:05.093Z,1009.89
2018-06-17T02:45:05.112Z,1009.90
2018-06-17T02:46:05.135Z,1009.89
2018-06-17T02:47:05.157Z,1009.84
2018-06-17T02:48:05.180Z,1009.87
2018-06-17T02:49:05.200Z,1009.86
2018-06-17T02:50:05.222Z,1009.87
2018-06-17T02:51:05.259Z,1009.89
2018-06-17T02:52:05.268Z,1009.85
2018-06-17T02:53:05.288Z,1009.86
2018-06-17T02:54:05.310Z,1009.84
2018-06-17T02:55:05.331Z,1009.81
2018-06-17T02:56:05.355Z,1009.81
2018-06-17T02:57:05.373Z,1009.86
2018-06-17T02:58:05.398Z,1009.83
2018-06-17T02:59:05.417Z,1009.87
2018-06-17T03:00:05.440Z,1009.88
2018-06-17T03:01:05.462Z,1009.88
2018-06-17T03:02:05.485Z,1009.84
2018-06-17T03:03:05.506Z,1009.85
2018-06-17T03:04:05.534Z,1009.87
2018-06-17T03:05:05.548Z,1009.86
2018-06-17T03:06:05.576Z,1009.84
2018-06-17T03:07:05.591Z,1009.82
2018-06-17T03:08:05.613Z,1009.83
2018-06-17T03:09:05.633Z,1009.78
2018-06-17T03:10:05.659Z,1009.83
2018-06-17T03:11:05.676Z,1009.79
2018-06-17T03:12:05.698Z,1009.76
2018-06-17T03:13:05.725Z,1009.77
2018-06-17T03:14:05.742Z,1009.85
2018-06-17T03:15:05.765Z,1009.87
2018-06-17T03:16:05.790Z,1009.85
2018-06-17T03:17:05.808Z,1009.87
2018-06-17T03:18:05.832Z,1009.91
2018-06-17T03:19:05.853Z,1009.87
2018-06-17T03:20:05.870Z,1009.88
2018-06-17T03:21:05.895Z,1009.89
2018-06-17T03:22:05.917Z,1009.92
2018-06-17T03:23:05.939Z,1009.93
2018-06-17T03:24:05.957Z,1009.91
2018-06-17T03:25:05.981Z,1009.94
2018-06-17T03:26:06.000Z,1009.96
2018-06-17T03:27:06.026Z,1009.93
2018-06-17T03:28:06.044Z,1009.99
2018-06-17T03:29:06.066Z,1009.96
2018-06-17T03:30:06.087Z,1009.96
2018-06-17T03:31:06.108Z,1010.00
2018-06-17T03:32:06.129Z,1009.97
2018-06-17T03:33:06.151Z,1009.94
2018-06-17T03:34:06.175Z,1009.91
2018-06-17T03:35:06.194Z,1009.87
2018-06-17T03:36:06.214Z,1009.89
2018-06-17T03:37:06.236Z,1009.88
2018-06-17T03:38:06.257Z,1009.87
2018-06-17T03:39:06.283Z,1009.90
2018-06-17T03:40:06.300Z,1009.89
2018-06-17T03:41:06.322Z,1009.88
2018-06-17T03:42:06.343Z,1009.93
2018-06-17T03:43:06.369Z,1009.88
2018-06-17T03:44:06.386Z,1009.94
2018-06-17T03:45:06.410Z,1009.92
2018-06-17T03:46:06.429Z,1009.98
2018-06-17T03:47:06.451Z,1009.90
2018-06-17T03:48:06.475Z,1009.95
2018-06-17T03:49:06.494Z,1009.94
2018-06-17T03:50:06.516Z,1009.92
2018-06-17T03:51:06.545Z,1009.97
2018-06-17T03:52:06.560Z,1009.94
2018-06-17T03:53:06.583Z,1009.92
2018-06-17T03:54:06.602Z,1009.92
2018-06-17T03:55:06.625Z,1009.91
2018-06-17T03:56:06.644Z,1009.95
2018-06-17T03:57:06.669Z,1009.90
2018-06-17T03:58:06.689Z,1009.93
2018-06-17T03:59:06.713Z,1009.91
2018-06-17T04:00:06.734Z,1009.91
2018-06-17T04:01:06.752Z,1009.95
2018-06-17T04:02:06.779Z,1009.95
2018-06-17T04:03:06.798Z,1009.97
2018-06-17T04:04:06.827Z,1009.99
2018-06-17T04:05:06.844Z,1010.00
2018-06-17T04:06:06.863Z,1009.99
2018-06-17T04:07:06.884Z,1010.00
2018-06-17T04:08:06.904Z,1009.95
2018-06-17T04:09:06.928Z,1009.99
2018-06-17T04:10:06.948Z,1010.00
2018-06-17T04:11:06.973Z,1010.04
2018-06-17T04:12:06.995Z,1010.03
2018-06-17T04:13:07.012Z,1009.99
2018-06-17T04:14:07.035Z,1009.99
2018-06-17T04:15:07.059Z,1009.98
2018-06-17T04:16:07.082Z,1009.98
2018-06-17T04:17:07.102Z,1009.95
2018-06-17T04:18:07.125Z,1010.01
2018-06-17T04:19:07.146Z,1009.99
2018-06-17T04:20:07.165Z,1009.99
2018-06-17T04:21:07.187Z,1009.97
2018-06-17T04:22:07.209Z,1010.01
2018-06-17T04:23:07.234Z,1009.99
2018-06-17T04:24:07.255Z,1009.98
2018-06-17T04:25:07.277Z,1009.97
2018-06-17T04:26:07.300Z,1009.98
2018-06-17T04:27:07.327Z,1009.98
2018-06-17T04:28:07.339Z,1009.96
2018-06-17T04:29:07.362Z,1010.00
2018-06-17T04:30:07.385Z,1010.02
2018-06-17T04:31:07.410Z,1009.98
2018-06-17T04:32:07.429Z,1009.93
2018-06-17T04:33:07.449Z,1009.93
2018-06-17T04:34:07.473Z,1009.96
2018-06-17T04:35:07.495Z,1009.95
2018-06-17T04:36:07.515Z,1009.98
2018-06-17T04:37:07.538Z,1009.95
2018-06-17T04:38:07.562Z,1009.96
2018-06-17T04:39:07.581Z,1009.96
2018-06-17T04:40:07.604Z,1009.96
2018-06-17T04:41:07.628Z,1009.99
2018-06-17T04:42:07.647Z,1010.02
2018-06-17T04:43:07.674Z,1010.00
2018-06-17T04:44:07.690Z,1010.10
2018-06-17T04:45:07.718Z,1010.08
2018-06-17T04:46:07.741Z,1010.12
2018-06-17T04:47:07.763Z,1010.04
2018-06-17T04:48:07.779Z,1009.98
2018-06-17T04:49:07.803Z,1009.96
2018-06-17T04:50:07.824Z,1009.95
2018-06-17T04:51:07.848Z,1009.97
2018-06-17T04:52:07.869Z,1009.97
2018-06-17T04:53:07.893Z,1010.00
2018-06-17T04:54:07.915Z,1009.99
2018-06-17T04:55:07.937Z,1010.01
2018-06-17T04:56:07.957Z,1010.00
2018-06-17T04:57:07.979Z,1010.03
2018-06-17T04:58:08.003Z,1010.02
2018-06-17T04:59:08.022Z,1010.06
2018-06-17T05:00:08.046Z,1010.11
2018-06-17T05:01:08.067Z,1010.08
2018-06-17T05:02:08.090Z,1010.07
2018-06-17T05:03:08.113Z,1010.09
2018-06-17T05:04:08.133Z,1010.07
2018-06-17T05:05:08.156Z,1010.07
2018-06-17T05:06:08.179Z,1010.07
2018-06-17T05:07:08.199Z,1010.06
2018-06-17T05:08:08.222Z,1010.03
2018-06-17T05:09:08.244Z,1010.05
2018-06-17T05:10:08.265Z,1010.05
2018-06-17T05:11:08.287Z,1010.04
2018-06-17T05:12:08.306Z,1010.03
2018-06-17T05:13:08.330Z,1010.04
2018-06-17T05:14:08.353Z,1010.04
2018-06-17T05:15:08.372Z,1010.06
2018-06-17T05:16:08.393Z,1010.04
2018-06-17T05:17:08.422Z,1010.07
2018-06-17T05:18:08.440Z,1010.09
2018-06-17T05:19:08.464Z,1010.12
2018-06-17T05:20:08.482Z,1010.08
2018-06-17T05:21:08.506Z,1010.09
2018-06-17T05:22:08.526Z,1010.08
2018-06-17T05:23:08.550Z,1010.06
2018-06-17T05:24:08.572Z,1010.07
2018-06-17T05:25:08.594Z,1010.06
2018-06-17T05:26:08.613Z,1010.10
2018-06-17T05:27:08.636Z,1010.14
2018-06-17T05:28:08.708Z,1010.08
2018-06-17T05:29:08.679Z,1010.07
2018-06-17T05:30:08.705Z,1010.05
2018-06-17T05:31:08.726Z,1010.04
2018-06-17T05:32:08.747Z,1010.03
2018-06-17T05:33:08.770Z,1009.98
2018-06-17T05:34:08.792Z,1010.01
2018-06-17T05:35:08.812Z,1009.99
2018-06-17T05:36:08.836Z,1010.01
2018-06-17T05:37:08.856Z,1010.12
2018-06-17T05:38:08.883Z,1010.05
2018-06-17T05:39:08.903Z,1010.11
2018-06-17T05:40:08.931Z,1010.10
2018-06-17T05:41:08.947Z,1010.08
2018-06-17T05:42:08.967Z,1010.09
2018-06-17T05:43:08.990Z,1010.11
2018-06-17T05:44:09.012Z,1010.14
2018-06-17T05:45:09.037Z,1010.15
2018-06-17T05:46:09.058Z,1010.20
2018-06-17T05:47:09.082Z,1010.15
2018-06-17T05:48:09.103Z,1010.17
2018-06-17T05:49:09.125Z,1010.16
2018-06-17T05:50:09.148Z,1010.18
2018-06-17T05:51:09.173Z,1010.19
2018-06-17T05:52:09.191Z,1010.22
2018-06-17T05:53:09.215Z,1010.14
2018-06-17T05:54:09.240Z,1010.17
2018-06-17T05:55:09.262Z,1010.20
2018-06-17T05:56:09.286Z,1010.21
2018-06-17T05:57:09.306Z,1010.17
2018-06-17T05:58:09.329Z,1010.19
2018-06-17T05:59:09.355Z,1010.14
2018-06-17T06:00:09.376Z,1010.21
2018-06-17T06:01:09.400Z,1010.21
2018-06-17T06:02:09.427Z,1010.21
2018-06-17T06:03:09.450Z,1010.24
2018-06-17T06:04:09.476Z,1010.25
2018-06-17T06:05:09.498Z,1010.26
2018-06-17T06:06:09.519Z,1010.23
2018-06-17T06:07:09.546Z,1010.28
2018-06-17T06:08:09.569Z,1010.20
2018-06-17T06:09:09.593Z,1010.20
2018-06-17T06:10:09.616Z,1010.16
2018-06-17T06:11:09.644Z,1010.20
2018-06-17T06:12:09.715Z,1010.17
2018-06-17T06:13:09.692Z,1010.19
2018-06-17T06:14:09.717Z,1010.25
2018-06-17T06:15:09.742Z,1010.24
2018-06-17T06:16:09.763Z,1010.24
2018-06-17T06:17:09.787Z,1010.27
2018-06-17T06:18:09.815Z,1010.25
2018-06-17T06:19:09.837Z,1010.22
2018-06-17T06:20:09.865Z,1010.26
2018-06-17T06:21:09.887Z,1010.28
2018-06-17T06:22:09.914Z,1010.28
2018-06-17T06:23:09.938Z,1010.31
2018-06-17T06:24:09.963Z,1010.30
2018-06-17T06:25:09.986Z,1010.32
2018-06-17T06:26:10.014Z,1010.27
2018-06-17T06:27:10.040Z,1010.27
2018-06-17T06:28:10.065Z,1010.31
2018-06-17T06:29:10.090Z,1010.29
2018-06-17T06:30:10.115Z,1010.32
2018-06-17T06:31:10.138Z,1010.34
2018-06-17T06:32:10.163Z,1010.33
2018-06-17T06:33:10.192Z,1010.37
2018-06-17T06:34:10.217Z,1010.38
2018-06-17T06:35:10.240Z,1010.39
2018-06-17T06:36:10.267Z,1010.36
2018-06-17T06:37:10.301Z,1010.36
2018-06-17T06:38:10.317Z,1010.39
2018-06-17T06:39:10.342Z,1010.35
2018-06-17T06:40:10.372Z,1010.39
2018-06-17T06:41:10.396Z,1010.40
2018-06-17T06:42:10.418Z,1010.36
2018-06-17T06:43:10.448Z,1010.38
2018-06-17T06:44:10.472Z,1010.43
2018-06-17T06:45:10.496Z,1010.40
2018-06-17T06:46:10.521Z,1010.42
2018-06-17T06:47:10.548Z,1010.43
2018-06-17T06:48:10.574Z,1010.43
2018-06-17T06:49:10.604Z,1010.44
2018-06-17T06:50:10.631Z,1010.45
2018-06-17T06:51:10.817Z,1010.46
2018-06-17T06:52:10.677Z,1010.45
2018-06-17T06:53:10.703Z,1010.42
2018-06-17T06:54:10.729Z,1010.45
2018-06-17T06:55:10.756Z,1010.43
2018-06-17T06:56:10.785Z,1010.47
2018-06-17T06:57:10.809Z,1010.46
2018-06-17T06:58:10.833Z,1010.46
2018-06-17T06:59:10.861Z,1010.38
2018-06-17T07:00:10.884Z,1010.47
2018-06-17T07:01:10.916Z,1010.46
2018-06-17T07:02:10.940Z,1010.43
2018-06-17T07:03:10.964Z,1010.53
2018-06-17T07:04:10.989Z,1010.51
2018-06-17T07:05:11.016Z,1010.59
2018-06-17T07:06:11.045Z,1010.49
2018-06-17T07:07:11.071Z,1010.44
2018-06-17T07:08:11.093Z,1010.54
2018-06-17T07:09:11.125Z,1010.59
2018-06-17T07:10:11.152Z,1010.49
2018-06-17T07:11:11.172Z,1010.55
2018-06-17T07:12:11.204Z,1010.54
2018-06-17T07:13:11.227Z,1010.59
2018-06-17T07:14:11.253Z,1010.57
2018-06-17T07:15:11.277Z,1010.59
2018-06-17T07:16:11.303Z,1010.60
2018-06-17T07:17:11.333Z,1010.56
2018-06-17T07:18:11.358Z,1010.58
2018-06-17T07:19:11.385Z,1010.55
2018-06-17T07:20:11.411Z,1010.58
2018-06-17T07:21:11.437Z,1010.63
2018-06-17T07:22:11.465Z,1010.62
2018-06-17T07:23:11.490Z,1010.53
2018-06-17T07:24:11.517Z,1010.67
2018-06-17T07:25:11.541Z,1010.60
2018-06-17T07:26:11.568Z,1010.64
2018-06-17T07:27:11.595Z,1010.64
2018-06-17T07:28:11.623Z,1010.62
2018-06-17T07:29:11.647Z,1010.72
2018-06-17T07:30:11.678Z,1010.72
2018-06-17T07:31:11.701Z,1010.71
2018-06-17T07:32:11.730Z,1010.72
2018-06-17T07:33:11.759Z,1010.75
2018-06-17T07:34:11.783Z,1010.71
2018-06-17T07:35:11.809Z,1010.65
2018-06-17T07:36:11.835Z,1010.77
2018-06-17T07:37:11.859Z,1010.75
2018-06-17T07:38:11.886Z,1010.76
2018-06-17T07:39:11.913Z,1010.75
2018-06-17T07:40:11.938Z,1010.81
2018-06-17T07:41:11.966Z,1010.85
2018-06-17T07:42:11.994Z,1010.73
2018-06-17T07:43:12.018Z,1010.78
2018-06-17T07:44:12.043Z,1010.79
2018-06-17T07:45:12.069Z,1010.72
2018-06-17T07:46:12.098Z,1010.71
2018-06-17T07:47:12.124Z,1010.75
2018-06-17T07:48:12.150Z,1010.78
2018-06-17T07:49:12.177Z,1010.77
2018-06-17T07:50:12.207Z,1010.75
2018-06-17T07:51:12.227Z,1010.68
2018-06-17T07:52:12.251Z,1010.75
2018-06-17T07:53:12.279Z,1010.74
2018-06-17T07:54:12.308Z,1010.71
2018-06-17T07:55:12.335Z,1010.79
2018-06-17T07:56:12.359Z,1010.83
2018-06-17T07:57:12.391Z,1010.77
2018-06-17T07:58:12.403Z,1010.78
2018-06-17T07:59:12.433Z,1010.82
2018-06-17T08:00:12.457Z,1010.78
2018-06-17T08:01:12.481Z,1010.85
2018-06-17T08:02:12.506Z,1010.79
2018-06-17T08:03:12.532Z,1010.78
2018-06-17T08:04:12.562Z,1010.83
2018-06-17T08:05:12.585Z,1010.83
2018-06-17T08:06:12.607Z,1010.84
2018-06-17T08:07:12.637Z,1010.92
2018-06-17T08:08:12.660Z,1010.85
2018-06-17T08:09:12.685Z,1010.87
2018-06-17T08:10:12.709Z,1010.84
2018-06-17T08:11:12.733Z,1010.85
2018-06-17T08:12:12.759Z,1010.86
2018-06-17T08:13:12.782Z,1010.87
2018-06-17T08:14:12.810Z,1010.83
2018-06-17T08:15:12.832Z,1010.90
2018-06-17T08:16:12.860Z,1010.84
2018-06-17T08:17:12.882Z,1010.88
2018-06-17T08:18:12.907Z,1010.88
2018-06-17T08:19:12.935Z,1010.94
2018-06-17T08:20:12.993Z,1010.99
2018-06-17T08:21:12.985Z,1010.92
2018-06-17T08:22:13.007Z,1010.97
2018-06-17T08:23:13.036Z,1010.92
2018-06-17T08:24:13.060Z,1010.99
2018-06-17T08:25:13.084Z,1011.02
2018-06-17T08:26:13.110Z,1010.91
2018-06-17T08:27:13.136Z,1010.97
2018-06-17T08:28:13.157Z,1010.93
2018-06-17T08:29:13.184Z,1010.95
2018-06-17T08:30:13.209Z,1010.91
2018-06-17T08:31:13.236Z,1010.90
2018-06-17T08:32:13.258Z,1010.87
2018-06-17T08:33:13.294Z,1010.92
2018-06-17T08:34:13.311Z,1010.93
2018-06-17T08:35:13.337Z,1010.95
2018-06-17T08:36:13.363Z,1010.89
2018-06-17T08:37:13.386Z,1010.90
2018-06-17T08:38:13.414Z,1010.92
2018-06-17T08:39:13.443Z,1010.93
2018-06-17T08:40:13.464Z,1010.96
2018-06-17T08:41:13.488Z,1010.87
2018-06-17T08:42:13.513Z,1010.86
2018-06-17T08:43:13.568Z,1010.83
2018-06-17T08:44:13.567Z,1010.86
2018-06-17T08:45:13.592Z,1010.97
2018-06-17T08:46:13.615Z,1010.90
2018-06-17T08:47:13.642Z,1010.92
2018-06-17T08:48:13.665Z,1010.88
2018-06-17T08:49:13.693Z,1010.91
2018-06-17T08:50:13.716Z,1010.91
2018-06-17T08:51:13.742Z,1010.88
2018-06-17T08:52:13.765Z,1010.92
2018-06-17T08:53:13.796Z,1010.91
2018-06-17T08:54:13.873Z,1010.96
2018-06-17T08:55:13.844Z,1010.87
2018-06-17T08:56:13.867Z,1010.92
2018-06-17T08:57:13.948Z,1010.97
2018-06-17T08:58:13.917Z,1010.93
2018-06-17T08:59:13.948Z,1010.88
2018-06-17T09:00:14.032Z,1010.92
2018-06-17T09:01:13.995Z,1010.98
2018-06-17T09:02:14.021Z,1010.99
2018-06-17T09:03:14.046Z,1011.01
2018-06-17T09:04:14.076Z,1011.00
2018-06-17T09:05:14.097Z,1011.02
2018-06-17T09:06:14.123Z,1011.01
2018-06-17T09:07:14.144Z,1011.07
2018-06-17T09:08:14.170Z,1011.05
2018-06-17T09:09:14.192Z,1011.06
2018-06-17T09:10:14.220Z,1011.10
2018-06-17T09:11:14.246Z,1011.06
2018-06-17T09:12:14.270Z,1011.08
2018-06-17T09:13:14.293Z,1011.07
2018-06-17T09:14:14.321Z,1011.12
2018-06-17T09:15:14.343Z,1011.11
2018-06-17T09:16:14.392Z,1011.08
2018-06-17T09:17:14.393Z,1011.09
2018-06-17T09:18:14.419Z,1011.07
2018-06-17T09:19:14.526Z,1011.07
2018-06-17T09:20:14.471Z,1011.12
2018-06-17T09:21:14.494Z,1011.11
2018-06-17T09:22:14.522Z,1011.05
2018-06-17T09:23:14.547Z,1011.04
2018-06-17T09:24:14.570Z,1011.08
2018-06-17T09:25:14.630Z,1011.06
2018-06-17T09:26:14.620Z,1011.06
2018-06-17T09:27:14.648Z,1011.04
2018-06-17T09:28:14.671Z,1011.06
2018-06-17T09:29:14.698Z,1011.02
2018-06-17T09:30:14.721Z,1011.02
2018-06-17T09:31:14.749Z,1011.02
2018-06-17T09:32:14.830Z,1011.04
2018-06-17T09:33:14.796Z,1011.08
2018-06-17T09:34:14.823Z,1011.07
2018-06-17T09:35:14.847Z,1011.12
2018-06-17T09:36:14.870Z,1011.13
2018-06-17T09:37:14.896Z,1011.11
2018-06-17T09:38:14.921Z,1011.09
2018-06-17T09:39:14.947Z,1011.09
2018-06-17T09:40:14.974Z,1011.10
2018-06-17T09:41:14.997Z,1011.10
2018-06-17T09:42:15.023Z,1011.13
2018-06-17T09:43:15.051Z,1011.07
2018-06-17T09:44:15.112Z,1011.14
2018-06-17T09:45:15.097Z,1011.14
2018-06-17T09:46:15.126Z,1011.13
2018-06-17T09:47:15.148Z,1011.15
2018-06-17T09:48:15.172Z,1011.10
2018-06-17T09:49:15.199Z,1011.17
2018-06-17T09:50:15.224Z,1011.18
2018-06-17T09:51:15.251Z,1011.17
2018-06-17T09:52:15.272Z,1011.18
2018-06-17T09:53:15.300Z,1011.20
2018-06-17T09:54:15.322Z,1011.19
2018-06-17T09:55:15.350Z,1011.20
2018-06-17T09:56:15.375Z,1011.22
2018-06-17T09:57:15.398Z,1011.20
2018-06-17T09:58:15.423Z,1011.22
2018-06-17T09:59:15.453Z,1011.24
2018-06-17T10:00:15.476Z,1011.23
2018-06-17T10:01:15.501Z,1011.22
2018-06-17T10:02:15.524Z,1011.20
2018-06-17T10:03:15.553Z,1011.26
2018-06-17T10:04:15.574Z,1011.22
2018-06-17T10:05:15.599Z,1011.25
2018-06-17T10:06:15.630Z,1011.23
2018-06-17T10:07:15.653Z,1011.24
2018-06-17T10:08:15.676Z,1011.22
2018-06-17T10:09:15.704Z,1011.23
2018-06-17T10:10:15.726Z,1011.28
2018-06-17T10:11:15.751Z,1011.26
2018-06-17T10:12:15.780Z,1011.27
2018-06-17T10:13:15.802Z,1011.25
2018-06-17T10:14:15.828Z,1011.27
2018-06-17T10:15:15.853Z,1011.29
2018-06-17T10:16:15.878Z,1011.37
2018-06-17T10:17:15.904Z,1011.20
2018-06-17T10:18:15.929Z,1011.25
2018-06-17T10:19:15.958Z,1011.32
2018-06-17T10:20:15.982Z,1011.32
2018-06-17T10:21:16.021Z,1011.28
2018-06-17T10:22:16.035Z,1011.32
2018-06-17T10:23:16.058Z,1011.36
2018-06-17T10:24:16.083Z,1011.37
2018-06-17T10:25:16.106Z,1011.34
2018-06-17T10:26:16.131Z,1011.39
2018-06-17T10:27:16.160Z,1011.40
2018-06-17T10:28:16.184Z,1011.41
2018-06-17T10:29:16.213Z,1011.45
2018-06-17T10:30:16.232Z,1011.45
2018-06-17T10:31:16.260Z,1011.40
2018-06-17T10:32:16.285Z,1011.41
2018-06-17T10:33:16.308Z,1011.42
2018-06-17T10:34:16.333Z,1011.42
2018-06-17T10:35:16.359Z,1011.42
2018-06-17T10:36:16.383Z,1011.36
2018-06-17T10:37:16.409Z,1011.37
2018-06-17T10:38:16.439Z,1011.42
2018-06-17T10:39:16.463Z,1011.44
2018-06-17T10:40:16.486Z,1011.41
2018-06-17T10:41:16.514Z,1011.51
2018-06-17T10:42:16.544Z,1011.44
2018-06-17T10:43:16.562Z,1011.45
2018-06-17T10:44:16.638Z,1011.49
2018-06-17T10:45:16.614Z,1011.48
2018-06-17T10:46:16.638Z,1011.52
2018-06-17T10:47:16.664Z,1011.52
2018-06-17T10:48:16.689Z,1011.55
2018-06-17T10:49:16.714Z,1011.54
2018-06-17T10:50:16.740Z,1011.56
2018-06-17T10:51:16.766Z,1011.54
2018-06-17T10:52:16.794Z,1011.60
2018-06-17T10:53:16.820Z,1011.59
2018-06-17T10:54:16.843Z,1011.61
2018-06-17T10:55:16.872Z,1011.63
2018-06-17T10:56:16.967Z,1011.64
2018-06-17T10:57:16.923Z,1011.64
2018-06-17T10:58:16.948Z,1011.59
2018-06-17T10:59:16.973Z,1011.59
2018-06-17T11:00:17.200Z,1011.60
2018-06-17T11:01:17.049Z,1011.62
2018-06-17T11:02:17.053Z,1011.64
2018-06-17T11:03:17.077Z,1011.67
2018-06-17T11:04:17.099Z,1011.70
2018-06-17T11:05:17.251Z,1011.65
2018-06-17T11:06:17.152Z,1011.68
2018-06-17T11:07:17.181Z,1011.65
2018-06-17T11:08:17.212Z,1011.65
2018-06-17T11:09:17.229Z,1011.65
2018-06-17T11:10:17.258Z,1011.69
2018-06-17T11:11:17.282Z,1011.69
2018-06-17T11:12:17.306Z,1011.68
2018-06-17T11:13:17.380Z,1011.73
2018-06-17T11:14:17.360Z,1011.70
2018-06-17T11:15:17.384Z,1011.70
2018-06-17T11:16:17.412Z,1011.62
2018-06-17T11:17:17.439Z,1011.68
2018-06-17T11:18:17.464Z,1011.74
2018-06-17T11:19:17.491Z,1011.66
2018-06-17T11:20:17.515Z,1011.69
2018-06-17T11:21:17.538Z,1011.70
2018-06-17T11:22:17.570Z,1011.63
2018-06-17T11:23:17.594Z,1011.69
2018-06-17T11:24:17.619Z,1011.63
2018-06-17T11:25:17.643Z,1011.64
2018-06-17T11:26:17.668Z,1011.70
2018-06-17T11:27:17.696Z,1011.67
2018-06-17T11:28:17.724Z,1011.66
2018-06-17T11:29:17.744Z,1011.68
2018-06-17T11:30:17.772Z,1011.72
2018-06-17T11:31:17.798Z,1011.76
2018-06-17T11:32:17.824Z,1011.70
2018-06-17T11:33:17.847Z,1011.75
2018-06-17T11:34:17.875Z,1011.76
2018-06-17T11:35:17.899Z,1011.79
2018-06-17T11:36:17.924Z,1011.73
2018-06-17T11:37:17.953Z,1011.75
2018-06-17T11:38:17.978Z,1011.74
2018-06-17T11:39:18.005Z,1011.83
2018-06-17T11:40:18.029Z,1011.77
2018-06-17T11:41:18.054Z,1011.76
2018-06-17T11:42:18.080Z,1011.78
2018-06-17T11:43:18.104Z,1011.73
2018-06-17T11:44:18.128Z,1011.79
2018-06-17T11:45:18.152Z,1011.76
2018-06-17T11:46:18.178Z,1011.80
2018-06-17T11:47:18.205Z,1011.81
2018-06-17T11:48:18.228Z,1011.79
2018-06-17T11:49:18.252Z,1011.83
2018-06-17T11:50:18.280Z,1011.87
2018-06-17T11:51:18.309Z,1011.84
2018-06-17T11:52:18.328Z,1011.87
2018-06-17T11:53:18.354Z,1011.83
2018-06-17T11:54:18.381Z,1011.89
2018-06-17T11:55:18.408Z,1011.92
2018-06-17T11:56:18.429Z,1011.90
2018-06-17T11:57:18.455Z,1011.88
2018-06-17T11:58:18.478Z,1011.91
2018-06-17T11:59:18.503Z,1011.92
2018-06-17T12:00:18.527Z,1011.97
2018-06-17T12:01:18.554Z,1011.96
2018-06-17T12:02:18.584Z,1011.93
2018-06-17T12:03:18.607Z,1012.02
2018-06-17T12:04:18.627Z,1012.03
2018-06-17T12:05:18.655Z,1012.02